createdAt,value
2018-06-30T00:01:42.917Z,98256.23
2018-06-30T00:04:11.356Z,98260.31
2018-06-30T00:06:39.875Z,98254.05
2018-06-30T00:09:09.498Z,98260.70
2018-06-30T00:11:38.291Z,98253.31
2018-06-30T00:14:06.878Z,98256.10
2018-06-30T00:16:35.461Z,98255.45
2018-06-30T00:19:04.129Z,98259.53
2018-06-30T00:21:32.574Z,98254.84
2018-06-30T00:24:01.098Z,98249.77
2018-06-30T00:26:29.528Z,98253.84
2018-06-30T00:28:58.059Z,98252.21
2018-06-30T00:31:26.475Z,98252.98
2018-06-30T00:33:55.041Z,98243.92
2018-06-30T00:36:23.954Z,98247.41
2018-06-30T00:38:52.438Z,98242.10
2018-06-30T00:41:20.967Z,98244.19
2018-06-30T00:43:49.429Z,98239.85
2018-06-30T00:46:17.950Z,98238.22
2018-06-30T00:48:46.471Z,98238.60
2018-06-30T00:51:14.997Z,98239.30
2018-06-30T00:53:43.505Z,98239.95
2018-06-30T00:56:13.591Z,98245.27
2018-06-30T00:58:42.082Z,98248.08
2018-06-30T01:01:10.619Z,98237.38
2018-06-30T01:03:39.317Z,98240.02
2018-06-30T01:06:07.907Z,98241.23
2018-06-30T01:08:36.418Z,98239.29
2018-06-30T01:11:04.932Z,98233.28
2018-06-30T01:13:33.519Z,98227.38
2018-06-30T01:16:02.050Z,98232.48
2018-06-30T01:18:30.502Z,98235.61
2018-06-30T01:20:59.014Z,98230.61
2018-06-30T01:23:27.475Z,98237.17
2018-06-30T01:25:56.137Z,98237.09
2018-06-30T01:28:25.109Z,98238.89
2018-06-30T01:30:54.157Z,98234.91
2018-06-30T01:33:22.734Z,98235.63
2018-06-30T01:35:51.208Z,98236.50
2018-06-30T01:38:19.782Z,98235.14
2018-06-30T01:40:48.327Z,98247.33
2018-06-30T01:43:16.759Z,98239.23
2018-06-30T01:45:45.242Z,98237.22
2018-06-30T01:49:16.965Z,98231.20
2018-06-30T01:51:45.498Z,98230.47
2018-06-30T01:54:14.029Z,98227.78
2018-06-30T02:02:53.992Z,98226.75
2018-06-30T02:05:22.686Z,98230.48
2018-06-30T02:07:51.123Z,98227.80
2018-06-30T02:10:19.766Z,98226.14
2018-06-30T02:12:48.359Z,98223.75
2018-06-30T02:15:18.546Z,98229.51
2018-06-30T02:17:47.035Z,98226.97
2018-06-30T02:20:15.622Z,98223.11
2018-06-30T02:22:44.074Z,98222.59
2018-06-30T02:25:12.551Z,98227.51
2018-06-30T02:27:41.077Z,98227.20
2018-06-30T02:30:09.534Z,98228.77
2018-06-30T02:32:37.986Z,98232.81
2018-06-30T02:35:06.507Z,98228.56
2018-06-30T02:37:35.002Z,98232.59
2018-06-30T02:40:03.670Z,98229.58
2018-06-30T02:42:32.131Z,98228.38
2018-06-30T02:45:00.650Z,98227.41
2018-06-30T02:47:29.842Z,98234.37
2018-06-30T02:49:58.325Z,98236.78
2018-06-30T02:52:27.142Z,98235.47
2018-06-30T02:54:56.235Z,98231.28
2018-06-30T02:57:24.980Z,98231.48
2018-06-30T02:59:53.423Z,98232.17
2018-06-30T03:02:21.988Z,98223.75
2018-06-30T03:04:50.619Z,98229.52
2018-06-30T03:07:19.278Z,98232.58
2018-06-30T03:09:47.823Z,98227.86
2018-06-30T03:12:16.316Z,98232.27
2018-06-30T03:14:44.859Z,98233.27
2018-06-30T03:17:17.438Z,98232.11
2018-06-30T03:19:45.887Z,98237.16
2018-06-30T03:22:14.415Z,98239.39
2018-06-30T03:24:42.944Z,98234.67
2018-06-30T03:27:11.517Z,98239.08
2018-06-30T03:29:40.175Z,98233.52
2018-06-30T03:32:08.627Z,98236.06
2018-06-30T03:34:37.090Z,98235.39
2018-06-30T03:37:06.066Z,98235.07
2018-06-30T03:39:34.631Z,98233.59
2018-06-30T03:42:03.142Z,98234.11
2018-06-30T03:44:31.651Z,98230.90
2018-06-30T03:47:00.305Z,98235.11
2018-06-30T03:49:28.835Z,98239.36
2018-06-30T03:51:57.429Z,98243.25
2018-06-30T03:54:25.890Z,98240.38
2018-06-30T03:56:54.526Z,98238.00
2018-06-30T03:59:23.169Z,98239.16
2018-06-30T04:01:51.746Z,98248.09
2018-06-30T04:04:20.476Z,98250.77
2018-06-30T04:06:49.127Z,98246.55
2018-06-30T04:09:17.607Z,98251.91
2018-06-30T04:11:46.043Z,98249.53
2018-06-30T04:14:14.538Z,98249.52
2018-06-30T04:16:43.078Z,98252.34
2018-06-30T04:19:14.471Z,98253.17
2018-06-30T04:21:46.182Z,98254.16
2018-06-30T04:24:14.628Z,98248.75
2018-06-30T04:26:43.764Z,98251.44
2018-06-30T04:29:13.003Z,98255.59
2018-06-30T04:31:41.482Z,98254.05
2018-06-30T04:34:10.018Z,98253.36
2018-06-30T04:36:38.474Z,98252.36
2018-06-30T04:39:08.099Z,98251.31
2018-06-30T04:41:36.580Z,98257.67
2018-06-30T04:44:05.256Z,98258.36
2018-06-30T04:46:33.922Z,98262.72
2018-06-30T04:49:02.390Z,98255.05
2018-06-30T04:51:30.881Z,98253.31
2018-06-30T04:54:02.832Z,98260.01
2018-06-30T04:56:31.330Z,98259.42
2018-06-30T04:58:59.995Z,98262.72
2018-06-30T05:01:28.490Z,98263.45
2018-06-30T05:03:56.998Z,98263.14
2018-06-30T05:06:25.574Z,98260.31
2018-06-30T05:08:54.025Z,98264.60
2018-06-30T05:11:22.765Z,98264.89
2018-06-30T05:13:51.386Z,98257.70
2018-06-30T05:16:20.411Z,98268.82
2018-06-30T05:18:49.003Z,98267.30
2018-06-30T05:21:17.584Z,98270.59
2018-06-30T05:23:46.091Z,98272.37
2018-06-30T05:26:14.694Z,98272.98
2018-06-30T05:28:43.370Z,98272.54
2018-06-30T05:31:11.921Z,98277.36
2018-06-30T05:33:40.580Z,98273.88
2018-06-30T05:36:08.950Z,98277.21
2018-06-30T05:38:37.387Z,98271.92
2018-06-30T05:41:06.241Z,98270.18
2018-06-30T05:43:34.656Z,98269.41
2018-06-30T05:46:03.199Z,98274.05
2018-06-30T05:48:31.635Z,98277.98
2018-06-30T05:51:00.159Z,98280.39
2018-06-30T05:53:28.622Z,98288.15
2018-06-30T05:55:57.255Z,98276.84
2018-06-30T05:58:25.974Z,98281.44
2018-06-30T06:00:54.499Z,98282.66
2018-06-30T06:03:22.987Z,98280.84
2018-06-30T06:05:51.487Z,98292.03
2018-06-30T06:08:20.076Z,98287.66
2018-06-30T06:10:48.572Z,98299.61
2018-06-30T06:13:17.080Z,98295.08
2018-06-30T06:15:45.722Z,98293.75
2018-06-30T06:18:14.338Z,98285.84
2018-06-30T06:20:42.860Z,98292.82
2018-06-30T06:23:11.379Z,98292.32
2018-06-30T06:25:39.913Z,98297.69
2018-06-30T06:28:08.799Z,98300.06
2018-06-30T06:30:37.911Z,98297.36
2018-06-30T06:33:06.834Z,98296.58
2018-06-30T06:35:35.386Z,98294.50
2018-06-30T06:38:03.929Z,98288.67
2018-06-30T06:40:32.448Z,98289.70
2018-06-30T06:43:00.988Z,98295.70
2018-06-30T06:45:29.462Z,98293.23
2018-06-30T06:47:58.001Z,98292.32
2018-06-30T06:50:26.559Z,98292.25
2018-06-30T06:52:55.087Z,98287.03
2018-06-30T06:55:23.649Z,98287.09
2018-06-30T06:57:52.099Z,98283.86
2018-06-30T07:00:20.622Z,98284.09
2018-06-30T07:02:49.098Z,98288.52
2018-06-30T07:05:17.545Z,98279.71
2018-06-30T07:07:46.024Z,98278.45
2018-06-30T07:10:14.485Z,98281.94
2018-06-30T07:12:43.016Z,98276.67
2018-06-30T07:15:11.615Z,98274.14
2018-06-30T07:17:40.063Z,98278.33
2018-06-30T07:20:08.610Z,98274.77
2018-06-30T07:22:37.118Z,98275.94
2018-06-30T07:25:05.606Z,98281.59
2018-06-30T07:27:34.087Z,98277.26
2018-06-30T07:30:02.617Z,98272.39
2018-06-30T07:32:31.278Z,98266.88
2018-06-30T07:34:59.896Z,98270.81
2018-06-30T07:37:28.438Z,98268.36
2018-06-30T07:39:56.871Z,98280.64
2018-06-30T07:42:25.374Z,98275.41
2018-06-30T07:44:54.006Z,98276.66
2018-06-30T07:47:22.542Z,98276.58
2018-06-30T07:49:52.850Z,98283.44
2018-06-30T07:52:21.481Z,98276.73
2018-06-30T07:54:50.999Z,98279.13
2018-06-30T07:57:19.494Z,98275.57
2018-06-30T07:59:48.025Z,98274.03
2018-06-30T08:02:16.512Z,98276.48
2018-06-30T08:04:44.966Z,98267.28
2018-06-30T08:07:13.590Z,98257.80
2018-06-30T08:09:42.288Z,98261.45
2018-06-30T08:12:10.830Z,98258.30
2018-06-30T08:14:39.310Z,98261.48
2018-06-30T08:17:07.816Z,98253.43
2018-06-30T08:19:36.393Z,98254.00
2018-06-30T08:22:04.966Z,98260.27
2018-06-30T08:24:33.422Z,98264.13
2018-06-30T08:27:01.964Z,98255.33
2018-06-30T08:29:30.731Z,98257.97
2018-06-30T08:31:59.154Z,98256.06
2018-06-30T08:34:27.666Z,98258.18
2018-06-30T08:36:56.150Z,98257.31
2018-06-30T08:39:24.703Z,98259.98
2018-06-30T08:41:53.323Z,98259.00
2018-06-30T08:44:22.006Z,98264.49
2018-06-30T08:46:50.459Z,98263.29
2018-06-30T08:49:18.963Z,98262.78
2018-06-30T08:51:47.443Z,98254.52
2018-06-30T08:54:16.089Z,98256.37
2018-06-30T08:56:44.641Z,98253.04
2018-06-30T08:59:13.092Z,98257.07
2018-06-30T09:01:41.623Z,98250.58
2018-06-30T09:04:10.248Z,98241.29
2018-06-30T09:06:38.821Z,98234.69
2018-06-30T09:09:09.627Z,98248.68
2018-06-30T09:11:38.227Z,98237.33
2018-06-30T09:14:06.852Z,98237.84
2018-06-30T09:16:35.411Z,98245.02
2018-06-30T09:19:04.114Z,98246.67
2018-06-30T09:21:32.722Z,98236.77
2018-06-30T09:24:01.286Z,98239.30
2018-06-30T09:26:32.770Z,98232.55
2018-06-30T09:29:01.235Z,98231.38
2018-06-30T09:31:29.912Z,98236.91
2018-06-30T09:33:58.432Z,98241.41
2018-06-30T09:36:27.014Z,98238.58
2018-06-30T09:38:55.462Z,98245.69
2018-06-30T09:41:24.123Z,98238.08
2018-06-30T09:43:52.602Z,98233.33
2018-06-30T09:46:21.208Z,98226.28
2018-06-30T09:48:49.646Z,98227.66
2018-06-30T09:51:18.167Z,98222.19
2018-06-30T09:53:46.662Z,98218.37
2018-06-30T09:56:15.200Z,98227.91
2018-06-30T09:58:43.815Z,98217.69
2018-06-30T10:01:12.283Z,98218.25
2018-06-30T10:03:40.778Z,98214.86
2018-06-30T10:06:09.301Z,98217.55
2018-06-30T10:08:37.826Z,98218.80
2018-06-30T10:11:07.085Z,98226.67
2018-06-30T10:13:35.647Z,98221.39
2018-06-30T10:16:04.182Z,98220.72
2018-06-30T10:18:32.811Z,98214.17
2018-06-30T10:21:01.429Z,98213.82
2018-06-30T10:23:30.092Z,98208.66
2018-06-30T10:25:58.584Z,98211.24
2018-06-30T10:28:27.144Z,98206.00
2018-06-30T10:30:55.636Z,98196.84
2018-06-30T10:33:24.161Z,98191.32
2018-06-30T10:35:52.731Z,98185.85
2018-06-30T10:38:21.243Z,98184.88
2018-06-30T10:40:49.819Z,98187.84
2018-06-30T10:43:18.498Z,98182.31
2018-06-30T10:45:46.995Z,98178.87
2018-06-30T10:48:15.427Z,98176.55
2018-06-30T10:50:43.850Z,98170.16
2018-06-30T10:53:12.348Z,98164.55
2018-06-30T10:55:40.823Z,98166.03
2018-06-30T10:58:09.386Z,98158.10
2018-06-30T11:00:38.018Z,98167.03
2018-06-30T11:03:06.776Z,98171.21
2018-06-30T11:05:35.243Z,98162.45
2018-06-30T11:08:03.810Z,98159.78
2018-06-30T11:10:32.407Z,98156.80
2018-06-30T11:13:00.926Z,98152.84
2018-06-30T11:15:29.430Z,98145.75
2018-06-30T11:17:57.972Z,98148.69
2018-06-30T11:20:26.555Z,98147.17
2018-06-30T11:22:55.060Z,98149.77
2018-06-30T11:25:23.594Z,98146.22
2018-06-30T11:27:52.160Z,98142.36
2018-06-30T11:30:20.761Z,98137.89
2018-06-30T11:32:49.323Z,98142.45
2018-06-30T11:35:17.746Z,98131.00
2018-06-30T11:37:46.254Z,98132.44
2018-06-30T11:40:14.702Z,98129.77
2018-06-30T11:42:43.230Z,98129.30
2018-06-30T11:45:11.743Z,98127.75
2018-06-30T11:47:40.270Z,98127.12
2018-06-30T11:50:08.882Z,98119.51
2018-06-30T11:52:37.432Z,98123.88
2018-06-30T11:55:06.347Z,98123.16
2018-06-30T11:57:34.888Z,98118.37
2018-06-30T12:00:03.481Z,98113.34
2018-06-30T12:02:32.044Z,98109.39
2018-06-30T12:05:00.526Z,98110.30
2018-06-30T12:07:29.050Z,98113.05
2018-06-30T12:09:57.631Z,98102.33
2018-06-30T12:12:26.099Z,98104.38
2018-06-30T12:14:54.607Z,98097.50
2018-06-30T12:17:23.040Z,98100.68
2018-06-30T12:19:51.627Z,98093.00
2018-06-30T12:22:20.256Z,98099.56
2018-06-30T12:24:48.834Z,98099.80
2018-06-30T12:27:17.355Z,98100.98
2018-06-30T12:29:45.862Z,98087.58
2018-06-30T12:32:14.437Z,98087.83
2018-06-30T12:34:42.870Z,98083.80
2018-06-30T12:37:11.383Z,98089.69
2018-06-30T12:39:40.112Z,98092.07
2018-06-30T12:42:08.707Z,98090.89
2018-06-30T12:44:37.223Z,98087.68
2018-06-30T12:47:05.883Z,98081.66
2018-06-30T12:49:34.528Z,98085.22
2018-06-30T12:52:03.071Z,98081.50
2018-06-30T12:54:31.670Z,98077.45
2018-06-30T12:56:59.973Z,98079.06
2018-06-30T12:59:28.462Z,98083.84
2018-06-30T13:01:56.947Z,98075.13
2018-06-30T13:04:25.568Z,98079.43
2018-06-30T13:06:54.003Z,98073.13
2018-06-30T13:09:22.536Z,98082.98
2018-06-30T13:11:51.059Z,98075.36
2018-06-30T13:14:19.588Z,98069.92
2018-06-30T13:16:48.048Z,98066.63
2018-06-30T13:19:16.529Z,98058.98
2018-06-30T13:21:45.025Z,98055.14
2018-06-30T13:24:13.559Z,98064.09
2018-06-30T13:26:42.095Z,98052.81
2018-06-30T13:29:10.691Z,98058.68
2018-06-30T13:31:39.182Z,98050.44
2018-06-30T13:34:08.815Z,98050.30
2018-06-30T13:36:37.303Z,98046.88
2018-06-30T13:39:09.606Z,98035.09
2018-06-30T13:41:38.128Z,98041.69
2018-06-30T13:44:07.017Z,98041.86
2018-06-30T13:46:35.480Z,98036.54
2018-06-30T13:49:03.985Z,98038.26
2018-06-30T13:51:32.602Z,98034.53
2018-06-30T13:54:01.128Z,98034.33
2018-06-30T13:56:29.606Z,98032.56
2018-06-30T13:58:58.206Z,98031.05
2018-06-30T14:01:26.835Z,98033.43
2018-06-30T14:03:55.343Z,98025.31
2018-06-30T14:06:24.058Z,98025.20
2018-06-30T14:08:52.522Z,98026.26
2018-06-30T14:11:21.122Z,98034.16
2018-06-30T14:13:49.547Z,98027.47
2018-06-30T14:16:18.086Z,98031.02
2018-06-30T14:18:46.628Z,98020.11
2018-06-30T14:21:15.234Z,98022.23
2018-06-30T14:23:43.734Z,98019.61
2018-06-30T14:26:12.228Z,98016.11
2018-06-30T14:28:40.836Z,98012.55
2018-06-30T14:31:09.471Z,98005.75
2018-06-30T14:33:37.954Z,98002.70
2018-06-30T14:36:06.467Z,97998.47
2018-06-30T14:38:35.071Z,97993.64
2018-06-30T14:41:07.451Z,97991.51
2018-06-30T14:43:35.941Z,97991.83
2018-06-30T14:46:04.620Z,97991.61
2018-06-30T14:48:33.151Z,97991.59
2018-06-30T14:51:01.675Z,97990.63
2018-06-30T14:53:30.198Z,97990.49
2018-06-30T14:55:59.244Z,97992.67
2018-06-30T14:58:27.783Z,97991.53
2018-06-30T15:00:56.295Z,97986.97
2018-06-30T15:03:24.869Z,97983.63
2018-06-30T15:05:53.318Z,97987.06
2018-06-30T15:08:21.937Z,97984.13
2018-06-30T15:10:50.551Z,97991.52
2018-06-30T15:13:19.141Z,97981.06
2018-06-30T15:15:47.819Z,97980.41
2018-06-30T15:18:16.437Z,97978.52
2018-06-30T15:20:44.955Z,97989.09
2018-06-30T15:23:13.578Z,97992.02
2018-06-30T15:25:42.105Z,97982.19
2018-06-30T15:28:10.598Z,97987.73
2018-06-30T15:30:39.076Z,97976.69
2018-06-30T15:33:07.605Z,97981.33
2018-06-30T15:35:36.127Z,97977.73
2018-06-30T15:38:04.694Z,97972.31
2018-06-30T15:40:33.231Z,97980.27
2018-06-30T15:43:02.045Z,97975.55
2018-06-30T15:45:30.584Z,97972.31
2018-06-30T15:47:59.120Z,97973.22
2018-06-30T15:50:27.715Z,97977.83
2018-06-30T15:52:56.283Z,97976.41
2018-06-30T15:55:25.106Z,97972.27
2018-06-30T15:57:53.622Z,97973.86
2018-06-30T16:00:22.179Z,97968.97
2018-06-30T16:02:50.960Z,97960.88
2018-06-30T16:05:19.637Z,97952.57
2018-06-30T16:07:48.405Z,97945.56
2018-06-30T16:10:16.927Z,97954.16
2018-06-30T16:12:45.571Z,97957.70
2018-06-30T16:15:14.035Z,97953.14
2018-06-30T16:17:42.564Z,97954.59
2018-06-30T16:20:11.127Z,97959.61
2018-06-30T16:22:39.748Z,97953.86
2018-06-30T16:25:08.598Z,97945.27
2018-06-30T16:27:37.086Z,97943.37
2018-06-30T16:30:06.918Z,97939.63
2018-06-30T16:32:35.839Z,97945.70
2018-06-30T16:35:04.498Z,97934.94
2018-06-30T16:37:33.146Z,97931.19
2018-06-30T16:40:01.752Z,97944.92
2018-06-30T16:42:30.353Z,97931.73
2018-06-30T16:44:58.919Z,97933.22
2018-06-30T16:47:27.668Z,97938.51
2018-06-30T16:49:56.335Z,97942.44
2018-06-30T16:52:24.860Z,97933.83
2018-06-30T16:54:53.988Z,97933.43
2018-06-30T16:57:22.569Z,97936.37
2018-06-30T16:59:51.105Z,97937.52
2018-06-30T17:02:19.606Z,97932.04
2018-06-30T17:04:48.156Z,97942.28
2018-06-30T17:07:16.666Z,97935.19
2018-06-30T17:09:45.278Z,97937.72
2018-06-30T17:12:13.819Z,97927.34
2018-06-30T17:14:43.371Z,97924.12
2018-06-30T17:17:11.945Z,97920.50
2018-06-30T17:19:40.576Z,97923.42
2018-06-30T17:22:09.139Z,97919.02
2018-06-30T17:24:37.739Z,97922.84
2018-06-30T17:27:06.572Z,97920.03
2018-06-30T17:29:35.078Z,97923.56
2018-06-30T17:32:03.667Z,97925.70
2018-06-30T17:34:32.134Z,97926.88
2018-06-30T17:37:00.647Z,97917.45
2018-06-30T17:39:29.195Z,97920.56
2018-06-30T17:41:57.797Z,97919.69
2018-06-30T17:44:26.426Z,97917.50
2018-06-30T17:46:54.985Z,97918.94
2018-06-30T17:49:23.674Z,97915.66
2018-06-30T17:51:52.295Z,97921.80
2018-06-30T17:54:20.871Z,97921.70
2018-06-30T17:56:49.420Z,97925.18
2018-06-30T17:59:18.095Z,97924.18
2018-06-30T18:01:46.704Z,97926.31
2018-06-30T18:04:15.381Z,97929.60
2018-06-30T18:06:43.942Z,97937.77
2018-06-30T18:09:12.913Z,97927.91
2018-06-30T18:11:42.207Z,97930.09
2018-06-30T18:14:10.886Z,97929.53
2018-06-30T18:16:39.473Z,97923.22
2018-06-30T18:19:08.087Z,97928.23
2018-06-30T18:21:36.596Z,97929.08
2018-06-30T18:25:29.623Z,97935.14
2018-06-30T18:27:58.226Z,97935.91
2018-06-30T18:30:27.036Z,97936.38
2018-06-30T18:32:55.583Z,97931.05
2018-06-30T18:35:24.355Z,97929.34
2018-06-30T18:37:52.811Z,97933.94
2018-06-30T18:40:21.467Z,97931.67
2018-06-30T18:42:49.996Z,97931.61
2018-06-30T18:45:18.515Z,97941.70
2018-06-30T18:47:47.246Z,97941.42
2018-06-30T18:50:15.799Z,97938.81
2018-06-30T18:52:44.369Z,97935.67
2018-06-30T18:55:13.007Z,97937.23
2018-06-30T18:57:41.524Z,97943.47
2018-06-30T19:00:10.556Z,97946.64
2018-06-30T19:02:39.096Z,97948.41
2018-06-30T19:05:07.959Z,97952.78
2018-06-30T19:07:36.554Z,97954.41
2018-06-30T19:10:05.273Z,97952.67
2018-06-30T19:12:38.755Z,97950.34
2018-06-30T19:15:07.308Z,97957.09
2018-06-30T19:17:35.807Z,97955.54
2018-06-30T19:20:05.081Z,97961.91
2018-06-30T19:22:33.615Z,97959.61
2018-06-30T19:25:02.224Z,97966.82
2018-06-30T19:27:30.791Z,97965.19
2018-06-30T19:30:03.376Z,97979.40
2018-06-30T19:32:31.913Z,97970.73
2018-06-30T19:35:00.409Z,97971.40
2018-06-30T19:37:28.998Z,97969.08
2018-06-30T19:39:57.460Z,97976.88
2018-06-30T19:42:26.199Z,97977.16
2018-06-30T19:44:54.659Z,97978.63
2018-06-30T19:47:23.352Z,97984.45
2018-06-30T19:49:51.914Z,97986.13
2018-06-30T19:52:20.443Z,97991.48
2018-06-30T19:54:48.968Z,97991.09
2018-06-30T19:57:17.459Z,97988.84
2018-06-30T19:59:46.205Z,97996.70
2018-06-30T20:02:14.794Z,97990.63
2018-06-30T20:04:44.806Z,97991.30
2018-06-30T20:07:13.426Z,97994.99
2018-06-30T20:09:41.923Z,97994.92
2018-06-30T20:12:10.540Z,97996.41
2018-06-30T20:14:39.084Z,97998.83
2018-06-30T20:17:07.588Z,97999.04
2018-06-30T20:19:36.145Z,98002.59
2018-06-30T20:22:04.791Z,98001.31
2018-06-30T20:24:33.343Z,98003.63
2018-06-30T20:27:02.083Z,97999.56
2018-06-30T20:29:30.733Z,98004.20
2018-06-30T20:31:59.459Z,98003.80
2018-06-30T20:34:28.054Z,98010.16
2018-06-30T20:36:56.949Z,98010.97
2018-06-30T20:39:26.011Z,98020.84
2018-06-30T20:41:54.709Z,98020.41
2018-06-30T20:44:23.417Z,98025.14
2018-06-30T20:46:51.992Z,98029.51
2018-06-30T20:49:20.536Z,98025.75
2018-06-30T20:51:49.167Z,98028.73
2018-06-30T20:54:17.652Z,98034.32
2018-06-30T20:56:46.159Z,98029.63
2018-06-30T20:59:14.834Z,98032.53
2018-06-30T21:01:43.425Z,98038.17
2018-06-30T21:04:11.980Z,98041.67
2018-06-30T21:06:40.527Z,98043.36
2018-06-30T21:09:10.520Z,98044.05
2018-06-30T21:11:39.080Z,98045.95
2018-06-30T21:14:07.617Z,98050.66
2018-06-30T21:16:36.173Z,98048.70
2018-06-30T21:19:04.792Z,98049.02
2018-06-30T21:21:33.437Z,98048.22
2018-06-30T21:24:02.171Z,98048.06
2018-06-30T21:26:30.633Z,98050.77
2018-06-30T21:28:59.166Z,98050.62
2018-06-30T21:31:27.614Z,98051.75
2018-06-30T21:33:56.095Z,98054.85
2018-06-30T21:36:24.736Z,98062.05
2018-06-30T21:38:53.426Z,98063.95
2018-06-30T21:41:21.965Z,98062.59
2018-06-30T21:43:50.471Z,98063.47
2018-06-30T21:46:19.003Z,98060.57
2018-06-30T21:48:47.543Z,98059.48
2018-06-30T21:53:50.647Z,98053.34
2018-06-30T21:56:19.229Z,98051.95
2018-06-30T21:58:47.793Z,98050.95
2018-06-30T22:01:21.664Z,98056.53
2018-06-30T22:03:50.244Z,98055.11
2018-06-30T22:06:18.792Z,98059.03
2018-06-30T22:09:17.999Z,98056.66
2018-06-30T22:11:46.615Z,98056.81
2018-06-30T22:14:15.412Z,98057.13
2018-06-30T22:16:43.904Z,98060.83
2018-06-30T22:19:12.644Z,98055.08
2018-06-30T22:21:41.115Z,98052.77
2018-06-30T22:24:09.643Z,98059.19
2018-06-30T22:26:38.094Z,98056.91
2018-06-30T22:29:06.740Z,98064.27
2018-06-30T22:31:35.398Z,98061.98
2018-06-30T22:34:04.143Z,98062.86
2018-06-30T22:36:32.792Z,98058.59
2018-06-30T22:39:01.373Z,98065.41
2018-06-30T22:41:30.187Z,98069.10
2018-06-30T22:43:58.686Z,98064.20
2018-06-30T22:46:27.190Z,98071.97
2018-06-30T22:48:55.755Z,98069.55
2018-06-30T22:51:24.924Z,98073.14
2018-06-30T22:53:53.459Z,98066.77
2018-06-30T22:56:22.004Z,98073.38
2018-06-30T23:01:19.061Z,98072.25
2018-06-30T23:03:47.571Z,98078.42
2018-06-30T23:06:16.095Z,98077.12
2018-06-30T23:08:49.951Z,98075.41
2018-06-30T23:11:18.443Z,98079.75
2018-06-30T23:13:46.936Z,98081.55
2018-06-30T23:16:15.431Z,98082.40
2018-06-30T23:18:43.984Z,98084.39
2018-06-30T23:21:12.599Z,98086.27
2018-06-30T23:23:41.048Z,98093.09
2018-06-30T23:26:09.555Z,98092.78
2018-06-30T23:28:38.058Z,98098.61
2018-06-30T23:31:06.647Z,98096.13
2018-06-30T23:33:35.166Z,98099.45
2018-06-30T23:36:05.281Z,98100.08
2018-06-30T23:38:33.910Z,98102.29
2018-06-30T23:41:02.422Z,98103.23
2018-06-30T23:43:30.958Z,98107.83
2018-06-30T23:45:59.466Z,98108.76
2018-06-30T23:48:28.007Z,98115.42
2018-06-30T23:50:56.571Z,98121.33
2018-06-30T23:53:25.167Z,98122.08
2018-06-30T23:55:53.853Z,98118.30
2018-06-30T23:58:22.547Z,98121.86
